createdAt,value
2022-09-16T00:01:58.120Z,101643.31
2022-09-16T00:04:27.838Z,101642.63
2022-09-16T00:06:55.507Z,101648.63
2022-09-16T00:09:23.386Z,101647.97
2022-09-16T00:11:51.570Z,101655.75
2022-09-16T00:14:19.569Z,101656.63
2022-09-16T00:16:47.700Z,101653.97
2022-09-16T00:19:16.056Z,101658.09
2022-09-16T00:21:44.107Z,101641.75
2022-09-16T00:24:14.778Z,101668.78
2022-09-16T00:26:45.378Z,101659.81
2022-09-16T00:29:13.433Z,101656.00
2022-09-16T00:31:41.619Z,101657.34
2022-09-16T00:34:10.648Z,101652.78
2022-09-16T00:36:38.623Z,101652.41
2022-09-16T00:39:06.591Z,101651.19
2022-09-16T00:41:36.366Z,101650.84
2022-09-16T00:44:08.669Z,101659.97
2022-09-16T00:46:48.994Z,101653.69
2022-09-16T00:49:23.301Z,101660.22
2022-09-16T00:51:54.976Z,101659.06
2022-09-16T00:54:24.965Z,101655.16
2022-09-16T00:56:56.632Z,101661.72
2022-09-16T00:59:38.877Z,101659.63
2022-09-16T01:02:14.395Z,101660.22
2022-09-16T01:04:54.024Z,101656.44
2022-09-16T01:07:32.877Z,101668.56
2022-09-16T01:10:01.953Z,101651.94
2022-09-16T01:12:34.181Z,101669.34
2022-09-16T01:15:04.063Z,101672.38
2022-09-16T01:17:36.040Z,101670.16
2022-09-16T01:20:45.723Z,101620.38
2022-09-16T01:23:29.079Z,101660.34
2022-09-16T01:26:17.311Z,101662.50
2022-09-16T01:29:17.393Z,101662.00
2022-09-16T01:32:24.325Z,101664.81
2022-09-16T01:34:55.396Z,101660.84
2022-09-16T01:37:45.654Z,101647.31
2022-09-16T01:40:38.419Z,101658.03
2022-09-16T01:43:38.166Z,101646.16
2022-09-16T01:46:08.820Z,101660.88
2022-09-16T01:48:53.966Z,101661.09
2022-09-16T01:51:37.735Z,101663.09
2022-09-16T01:54:32.768Z,101671.00
2022-09-16T01:57:19.314Z,101658.94
2022-09-16T01:59:51.666Z,101661.59
2022-09-16T02:02:27.616Z,101661.84
2022-09-16T02:05:00.135Z,101658.44
2022-09-16T12:13:19.398Z,101368.16
2022-09-16T12:16:04.812Z,101371.50
2022-09-16T12:18:45.372Z,101368.16
2022-09-16T12:21:16.571Z,101374.59
2022-09-16T12:23:51.996Z,101375.06
2022-09-16T12:26:29.976Z,101364.28
2022-09-16T12:29:12.039Z,101372.81
2022-09-16T12:31:55.942Z,101370.03
2022-09-16T12:34:42.261Z,101367.13
2022-09-16T12:37:26.639Z,101365.31
2022-09-16T12:39:54.833Z,101372.78
2022-09-16T12:42:46.620Z,101373.47
2022-09-16T12:46:03.065Z,101372.19
2022-09-16T12:49:09.175Z,101382.31
2022-09-16T12:51:57.992Z,101384.72
2022-09-16T12:55:06.784Z,101385.91
2022-09-16T12:57:39.345Z,101393.25
2022-09-16T13:00:37.801Z,101381.22
2022-09-16T13:03:18.680Z,101375.75
2022-09-16T13:05:51.848Z,101398.44
2022-09-16T13:08:32.340Z,101393.81
2022-09-16T13:14:28.568Z,101404.44
2022-09-16T13:17:00.999Z,101411.88
2022-09-16T13:19:54.679Z,101414.28
2022-09-16T13:22:29.670Z,101416.66
2022-09-16T13:25:25.305Z,101421.25
2022-09-16T13:28:25.932Z,101427.13
2022-09-16T13:30:54.139Z,101427.41
2022-09-16T13:33:29.205Z,101421.75
2022-09-16T13:36:19.991Z,101427.94
2022-09-16T13:38:51.120Z,101416.91
2022-09-16T13:41:37.750Z,101391.88
2022-09-16T13:44:34.611Z,101421.59
2022-09-16T13:47:16.520Z,101420.09
2022-09-16T13:50:14.785Z,101416.94
2022-09-16T13:52:44.960Z,101418.06
2022-09-16T13:55:24.606Z,101419.00
2022-09-16T13:58:22.688Z,101409.56
2022-09-16T14:01:10.532Z,101417.44
2022-09-16T14:03:46.742Z,101414.81
2022-09-16T14:06:58.083Z,101413.13
2022-09-16T14:09:46.722Z,101426.44
2022-09-16T14:12:35.587Z,101418.13
2022-09-16T14:15:04.178Z,101430.78
2022-09-16T14:17:48.956Z,101431.28
2022-09-16T14:20:23.583Z,101426.31
2022-09-16T14:23:03.084Z,101423.34
2022-09-16T14:25:37.058Z,101426.19
2022-09-16T14:28:27.608Z,101433.50
2022-09-16T14:30:59.166Z,101433.97
2022-09-16T14:33:36.678Z,101430.81
2022-09-16T14:36:13.215Z,101434.00
2022-09-16T14:38:55.197Z,101440.34
2022-09-16T14:41:58.277Z,101433.81
2022-09-16T14:44:29.476Z,101441.75
2022-09-16T14:47:09.480Z,101432.84
2022-09-16T14:49:41.252Z,101426.13
2022-09-16T14:52:23.015Z,101440.03
2022-09-16T14:54:52.489Z,101435.00
2022-09-16T14:57:26.405Z,101424.81
2022-09-16T14:59:59.710Z,101432.19
2022-09-16T15:02:30.457Z,101430.03
2022-09-16T15:05:20.884Z,101435.69
2022-09-16T15:08:09.935Z,101432.03
2022-09-16T15:10:55.229Z,101423.97
2022-09-16T15:13:36.627Z,101440.66
2022-09-16T15:16:14.013Z,101438.41
2022-09-16T15:18:59.945Z,101439.59
2022-09-16T15:21:38.010Z,101439.94
2022-09-16T15:24:17.236Z,101441.91
2022-09-16T15:26:48.355Z,101446.53
2022-09-16T15:29:19.488Z,101439.81
2022-09-16T15:31:48.171Z,101432.50
2022-09-16T15:34:22.317Z,101440.25
2022-09-16T15:36:55.771Z,101440.72
2022-09-16T15:39:32.153Z,101452.78
2022-09-16T15:42:24.674Z,101452.03
2022-09-16T15:44:59.705Z,101450.59
2022-09-16T15:47:35.387Z,101447.31
2022-09-16T15:50:15.508Z,101445.38
2022-09-16T15:53:04.375Z,101451.34
2022-09-16T15:55:43.894Z,101440.84
2022-09-16T15:58:24.801Z,101443.34
2022-09-16T16:01:13.575Z,101448.31
2022-09-16T16:03:55.422Z,101454.94
2022-09-16T16:06:56.054Z,101455.19
2022-09-16T16:09:30.071Z,101445.22
2022-09-16T16:12:11.148Z,101448.25
2022-09-16T16:14:40.998Z,101445.81
2022-09-16T16:17:14.337Z,101455.47
2022-09-16T16:19:46.102Z,101458.28
2022-09-16T16:22:17.177Z,101455.16
2022-09-16T16:24:46.293Z,101463.16
2022-09-16T16:27:14.525Z,101456.47
2022-09-16T16:29:42.496Z,101463.66
2022-09-16T16:32:14.449Z,101441.84
2022-09-16T16:34:45.690Z,101456.72
2022-09-16T16:37:33.683Z,101457.03
2022-09-16T16:40:07.274Z,101459.63
2022-09-16T16:42:36.494Z,101438.94
2022-09-16T16:45:05.120Z,101456.94
2022-09-16T16:47:34.063Z,101465.75
2022-09-16T16:50:02.276Z,101461.75
2022-09-16T16:52:31.225Z,101475.84
2022-09-16T16:54:59.464Z,101470.94
2022-09-16T16:57:27.571Z,101468.56
2022-09-16T16:59:55.620Z,101461.41
2022-09-16T17:02:25.582Z,101475.13
2022-09-16T17:04:53.655Z,101477.81
2022-09-16T17:10:09.867Z,101476.34
2022-09-16T17:12:39.240Z,101470.72
2022-09-16T17:15:08.843Z,101485.50
2022-09-16T17:17:37.083Z,101487.47
2022-09-16T17:20:05.703Z,101472.88
2022-09-16T17:22:33.738Z,101470.78
2022-09-16T17:25:01.881Z,101480.44
2022-09-16T17:27:31.561Z,101475.72
2022-09-16T17:30:02.741Z,101473.97
2022-09-16T17:32:33.111Z,101470.66
2022-09-16T17:35:01.033Z,101479.53
2022-09-16T17:37:31.523Z,101473.63
2022-09-16T17:40:01.031Z,101469.53
2022-09-16T17:42:29.000Z,101468.91
2022-09-16T17:44:57.057Z,101473.41
2022-09-16T17:47:30.004Z,101462.25
2022-09-16T17:50:00.065Z,101466.69
2022-09-16T17:52:28.184Z,101470.28
2022-09-16T17:54:57.146Z,101478.22
2022-09-16T17:57:29.989Z,101472.50
2022-09-16T18:00:21.074Z,101469.91
2022-09-16T18:02:49.129Z,101477.13
2022-09-16T18:05:17.588Z,101474.81
2022-09-16T18:07:48.803Z,101476.63
2022-09-16T18:10:17.096Z,101476.56
2022-09-16T18:12:45.018Z,101465.50
2022-09-16T18:15:13.901Z,101480.19
2022-09-16T18:18:00.601Z,101478.44
2022-09-16T18:20:48.439Z,101475.97
2022-09-16T18:23:16.389Z,101474.56
2022-09-16T18:25:44.317Z,101474.69
2022-09-16T18:28:12.540Z,101489.13
2022-09-16T18:30:40.740Z,101483.28
2022-09-16T18:33:09.845Z,101488.66
2022-09-16T18:35:39.794Z,101482.78
2022-09-16T18:38:08.302Z,101476.75
2022-09-16T18:40:39.616Z,101477.78
2022-09-16T18:43:08.051Z,101474.66
2022-09-16T18:45:36.027Z,101478.19
2022-09-16T18:48:04.402Z,101478.25
2022-09-16T18:50:35.365Z,101487.72
2022-09-16T18:53:03.650Z,101485.13
2022-09-16T18:55:31.694Z,101486.09
2022-09-16T18:58:00.655Z,101470.72
2022-09-16T19:00:28.694Z,101490.13
2022-09-16T19:02:56.649Z,101480.31
2022-09-16T19:05:26.325Z,101479.34
2022-09-16T19:07:54.403Z,101482.91
2022-09-16T19:10:22.457Z,101475.38
2022-09-16T19:12:50.594Z,101478.13
2022-09-16T19:15:18.555Z,101474.88
2022-09-16T19:17:46.629Z,101484.34
2022-09-16T19:20:14.887Z,101480.06
2022-09-16T19:22:46.429Z,101480.78
2022-09-16T19:25:14.602Z,101478.13
2022-09-16T19:27:42.778Z,101483.38
2022-09-16T19:30:11.138Z,101476.50
2022-09-16T19:32:40.023Z,101473.09
2022-09-16T19:35:09.910Z,101471.47
2022-09-16T19:37:37.526Z,101477.66
2022-09-16T19:40:05.722Z,101478.81
2022-09-16T19:42:34.023Z,101472.91
2022-09-16T19:45:02.005Z,101473.88
2022-09-16T19:47:31.584Z,101478.34
2022-09-16T19:50:02.742Z,101484.53
2022-09-16T19:52:31.447Z,101474.38
2022-09-16T19:54:59.365Z,101435.75
2022-09-16T19:57:29.892Z,101478.94
2022-09-16T19:59:58.145Z,101476.59
2022-09-16T20:02:26.154Z,101481.00
2022-09-16T20:04:55.294Z,101494.25
2022-09-16T20:07:23.389Z,101491.09
2022-09-16T20:09:51.333Z,101486.88
2022-09-16T20:12:21.106Z,101476.25
2022-09-16T20:14:48.790Z,101484.81
2022-09-16T20:17:16.728Z,101478.84
2022-09-16T20:19:45.256Z,101485.66
2022-09-16T20:22:13.311Z,101490.72
2022-09-16T20:24:42.566Z,101478.53
2022-09-16T20:27:11.683Z,101475.88
2022-09-16T20:29:39.633Z,101437.06
2022-09-16T20:32:07.618Z,101482.88
2022-09-16T20:34:35.765Z,101483.00
2022-09-16T20:37:03.702Z,101484.03
2022-09-16T20:39:31.676Z,101481.69
2022-09-16T20:42:00.503Z,101489.59
2022-09-16T20:44:28.459Z,101474.38
2022-09-16T20:46:56.380Z,101441.50
2022-09-16T20:49:26.417Z,101483.03
2022-09-16T20:51:54.387Z,101495.25
2022-09-16T20:54:22.356Z,101497.13
2022-09-16T20:56:50.519Z,101480.78
2022-09-16T20:59:20.706Z,101484.28
2022-09-16T21:01:49.810Z,101479.97
2022-09-16T21:04:22.026Z,101493.84
2022-09-16T21:06:50.180Z,101449.00
2022-09-16T21:09:19.635Z,101481.97
2022-09-16T21:11:49.903Z,101488.91
2022-09-16T21:14:18.675Z,101483.78
2022-09-16T21:16:47.497Z,101488.97
2022-09-16T21:19:15.969Z,101490.69
2022-09-16T21:21:46.452Z,101489.06
2022-09-16T21:24:14.965Z,101478.75
2022-09-16T21:26:45.694Z,101491.50
2022-09-16T21:29:21.599Z,101493.13
2022-09-16T21:31:50.180Z,101495.72
2022-09-16T21:34:21.956Z,101493.97
2022-09-16T21:36:51.239Z,101505.19
2022-09-16T21:39:21.425Z,101504.34
2022-09-16T21:41:50.753Z,101503.50
2022-09-16T21:44:19.023Z,101471.47
2022-09-16T21:46:47.689Z,101504.34
2022-09-16T21:49:26.243Z,101500.84
2022-09-16T21:51:56.243Z,101513.75
2022-09-16T21:54:25.700Z,101498.38
2022-09-16T21:56:54.775Z,101503.31
2022-09-16T21:59:23.123Z,101504.13
2022-09-16T22:01:52.412Z,101498.31
2022-09-16T22:04:23.644Z,101500.97
2022-09-16T22:06:55.372Z,101513.59
2022-09-16T22:09:24.628Z,101512.69
2022-09-16T22:11:53.426Z,101517.81
2022-09-16T22:14:21.398Z,101493.75
2022-09-16T22:16:51.013Z,101514.09
2022-09-16T22:19:20.195Z,101514.81
2022-09-16T22:21:50.389Z,101508.66
2022-09-16T22:24:23.913Z,101515.56
2022-09-16T22:26:52.615Z,101511.16
2022-09-16T22:29:21.340Z,101499.31
2022-09-16T22:31:49.821Z,101506.91
2022-09-16T22:34:18.093Z,101525.66
2022-09-16T22:36:46.090Z,101516.91
2022-09-16T22:39:17.389Z,101509.19
2022-09-16T22:41:45.332Z,101516.03
2022-09-16T22:44:14.750Z,101519.28
2022-09-16T22:46:50.012Z,101517.53
2022-09-16T22:49:18.127Z,101525.97
2022-09-16T22:51:46.144Z,101535.47
2022-09-16T22:54:15.009Z,101537.09
2022-09-16T22:56:44.479Z,101531.97
2022-09-16T22:59:19.550Z,101539.56
2022-09-16T23:01:48.400Z,101535.09
2022-09-16T23:04:17.028Z,101541.94
2022-09-16T23:06:45.157Z,101541.09
2022-09-16T23:09:15.488Z,101535.72
2022-09-16T23:11:44.370Z,101546.88
2022-09-16T23:14:28.810Z,101540.78
2022-09-16T23:16:56.738Z,101545.00
2022-09-16T23:19:24.695Z,101534.94
2022-09-16T23:21:52.848Z,101553.66
2022-09-16T23:24:22.751Z,101541.69
2022-09-16T23:26:50.821Z,101536.38
2022-09-16T23:29:26.012Z,101545.81
2022-09-16T23:31:54.104Z,101544.91
2022-09-16T23:34:22.853Z,101522.13
2022-09-16T23:36:53.430Z,101551.59
2022-09-16T23:39:21.493Z,101552.34
2022-09-16T23:41:51.036Z,101560.03
2022-09-16T23:44:20.792Z,101559.97
2022-09-16T23:46:49.002Z,101552.06
2022-09-16T23:49:20.961Z,101564.19
2022-09-16T23:51:49.813Z,101547.94
2022-09-16T23:54:18.143Z,101545.34
2022-09-16T23:56:46.186Z,101553.63
2022-09-16T23:59:15.175Z,101553.81
